Time;durP1;ratioP1;P1;durP2;ratioP2;P2;SDS_P1;SDS_P2;PMS_P1;PMS_P2;Temp;Humidity;BMP_temperature;BMP_pressure;BME280_temperature;BME280_humidity;BME280_pressure;Samples;Min_cycle;Max_cycle;Signal;HPM_P1;HPM_P2
2022/06/29 07:43:13;;;;;;;6.63;1.17;;;;;;;15.06;82.24;99574.91;5063578;28;20074;-79
2022/06/29 07:45:39;;;;;;;6.95;0.80;;;;;;;15.22;81.14;99578.28;5053774;28;20036;-80
2022/06/29 07:48:05;;;;;;;3.50;0.85;;;;;;;15.43;79.78;99571.22;5055555;28;20425;-80
2022/06/29 07:50:31;;;;;;;4.22;0.82;;;;;;;15.39;78.63;99578.75;5073108;28;20434;-79
2022/06/29 07:52:57;;;;;;;3.22;0.60;;;;;;;15.38;78.19;99577.13;5065376;28;20037;-80
2022/06/29 07:55:24;;;;;;;4.85;0.82;;;;;;;15.43;77.18;99580.00;5066618;28;20033;-80
2022/06/29 07:57:50;;;;;;;6.68;0.93;;;;;;;15.61;76.40;99575.97;5019896;28;20812;-80
2022/06/29 08:00:16;;;;;;;3.40;0.68;;;;;;;15.64;75.31;99575.56;5068946;28;20433;-80
2022/06/29 08:02:42;;;;;;;3.88;0.50;;;;;;;15.69;75.01;99573.16;5052724;28;20093;-80
2022/06/29 08:05:08;;;;;;;4.40;0.80;;;;;;;15.67;74.54;99572.50;5067412;28;20501;-80
2022/06/29 08:07:34;;;;;;;6.82;1.20;;;;;;;15.67;74.43;99575.19;5048625;28;20110;-81
2022/06/29 08:10:01;;;;;;;5.63;0.70;;;;;;;15.70;74.17;99571.31;5072220;28;20508;-81
2022/06/29 08:12:26;;;;;;;6.10;0.77;;;;;;;15.69;73.78;99578.47;5069257;28;20094;-81
2022/06/29 08:14:52;;;;;;;4.82;0.70;;;;;;;15.78;73.10;99580.97;5061920;28;20028;-81
2022/06/29 08:17:18;;;;;;;18.63;3.08;;;;;;;15.69;72.61;99577.63;5055137;28;20048;-80
2022/06/29 08:19:44;;;;;;;3.28;0.82;;;;;;;15.48;72.45;99576.78;5071805;28;20541;-80
2022/06/29 08:22:10;;;;;;;4.88;0.90;;;;;;;15.27;72.27;99573.19;5073751;28;20127;-80
2022/06/29 08:24:36;;;;;;;5.60;0.98;;;;;;;15.09;72.35;99573.69;5070985;28;20024;-80
2022/06/29 08:27:01;;;;;;;5.35;1.00;;;;;;;15.01;72.85;99574.66;5070965;28;20037;-81
2022/06/29 08:29:27;;;;;;;7.53;1.15;;;;;;;15.11;72.91;99579.66;5073016;28;20149;-81
2022/06/29 08:31:53;;;;;;;2.45;0.77;;;;;;;15.21;72.76;99574.78;5047210;28;20040;-80
2022/06/29 08:34:25;;;;;;;4.40;0.80;;;;;;;15.25;72.07;99575.22;5055153;28;20025;-81
2022/06/29 08:36:51;;;;;;;3.35;0.75;;;;;;;15.23;72.03;99569.25;5066862;28;20082;-80
2022/06/29 08:39:17;;;;;;;2.78;0.55;;;;;;;15.19;71.90;99568.84;5072397;28;20341;-80
2022/06/29 08:41:43;;;;;;;4.82;0.60;;;;;;;15.17;71.94;99575.38;5072245;28;20052;-80
2022/06/29 08:44:09;;;;;;;3.40;0.70;;;;;;;15.19;71.77;99568.03;5049182;28;20029;-80
2022/06/29 08:46:35;;;;;;;4.13;0.68;;;;;;;15.28;71.94;99571.31;5068941;28;20079;-80
2022/06/29 08:49:03;;;;;;;2.97;0.70;;;;;;;15.33;71.72;99571.56;5072806;28;20473;-80
2022/06/29 08:51:34;;;;;;;4.70;0.55;;;;;;;15.36;71.31;99582.66;5068841;28;20036;-80
2022/06/29 08:54:03;;;;;;;3.53;0.80;;;;;;;15.32;71.35;99570.72;5072440;28;20028;-80
2022/06/29 08:56:30;;;;;;;4.85;1.00;;;;;;;15.31;70.89;99581.59;5071145;28;20040;-80
2022/06/29 08:58:57;;;;;;;5.07;0.60;;;;;;;15.27;70.85;99585.66;5055624;28;20067;-80
2022/06/29 09:01:23;;;;;;;6.35;0.90;;;;;;;15.28;70.92;99598.78;5055436;28;20499;-81
2022/06/29 09:03:49;;;;;;;6.63;1.13;;;;;;;15.33;70.83;99598.19;5056821;28;20025;-80
2022/06/29 09:06:15;;;;;;;4.78;1.30;;;;;;;15.30;70.80;99596.75;5069583;28;20028;-80
2022/06/29 09:08:41;;;;;;;2.95;0.70;;;;;;;15.24;70.87;99597.53;5050921;28;20089;-81
2022/06/29 09:11:28;;;;;;;3.42;0.60;;;;;;;15.19;70.25;99602.63;5070098;28;20025;-80
2022/06/29 09:14:11;;;;;;;3.47;0.68;;;;;;;15.21;70.04;99600.59;5071279;28;20038;-80
2022/06/29 09:17:01;;;;;;;7.20;1.60;;;;;;;15.24;69.76;99602.88;5063459;28;20082;-75
2022/06/29 09:19:45;;;;;;;3.38;0.98;;;;;;;15.28;70.13;99605.94;5065948;28;20025;-75
2022/06/29 09:22:12;;;;;;;3.05;0.50;;;;;;;15.37;69.98;99604.75;5058243;28;20090;-80
2022/06/29 09:24:38;;;;;;;3.10;0.73;;;;;;;15.40;69.42;99611.53;5069413;28;20032;-81
2022/06/29 09:27:06;;;;;;;5.55;1.48;;;;;;;15.39;69.49;99610.72;5066784;28;20039;-80
2022/06/29 09:29:39;;;;;;;3.72;0.57;;;;;;;15.42;69.19;99610.31;5052854;28;20040;-81
2022/06/29 09:32:08;;;;;;;5.35;0.82;;;;;;;15.49;69.02;99613.03;5071016;28;20476;-81
2022/06/29 09:34:46;;;;;;;4.60;0.93;;;;;;;15.59;68.46;99613.47;5066973;28;20028;-80
2022/06/29 09:37:20;;;;;;;5.03;0.85;;;;;;;15.73;68.05;99611.72;5070467;28;20024;-81
2022/06/29 09:39:48;;;;;;;2.30;0.90;;;;;;;15.90;67.79;99619.34;5071277;28;20028;-80
2022/06/29 09:42:26;;;;;;;4.35;0.70;;;;;;;15.98;67.19;99608.53;5054418;28;20032;-80
2022/06/29 09:44:52;;;;;;;6.65;0.90;;;;;;;16.05;67.48;99621.06;5068481;28;20032;-80
2022/06/29 09:47:20;;;;;;;3.33;0.70;;;;;;;16.14;67.02;99611.84;5053460;28;20032;-81
2022/06/29 09:49:51;;;;;;;2.00;0.60;;;;;;;16.11;67.00;99618.41;5070833;28;20119;-80
2022/06/29 09:52:19;;;;;;;2.97;0.60;;;;;;;15.96;66.84;99615.88;5057775;28;20480;-81
2022/06/29 09:54:55;;;;;;;3.30;0.73;;;;;;;15.79;66.67;99615.41;5050116;28;20036;-80
2022/06/29 09:57:29;;;;;;;3.40;0.38;;;;;;;15.69;67.22;99615.78;5068913;28;20037;-80
2022/06/29 10:02:43;;;;;;;2.40;0.50;;;;;;;15.55;67.66;99614.06;5071346;28;20052;-80
2022/06/29 10:05:18;;;;;;;5.88;1.00;;;;;;;15.55;67.73;99620.22;5066936;28;20473;-80
2022/06/29 10:07:46;;;;;;;2.28;0.55;;;;;;;15.54;67.95;99613.25;5070044;28;20036;-81
2022/06/29 10:10:20;;;;;;;6.43;0.73;;;;;;;15.58;68.20;99609.16;5055787;28;20119;-80
2022/06/29 10:16:02;;;;;;;6.47;1.77;;;;;;;15.97;68.18;99614.03;5069377;28;20028;-80
2022/06/29 10:18:31;;;;;;;5.50;1.17;;;;;;;16.03;68.29;99615.09;5042199;28;20040;-80
2022/06/29 10:20:57;;;;;;;3.30;0.80;;;;;;;16.12;68.05;99621.88;5052299;28;20033;-80
2022/06/29 10:23:42;;;;;;;5.18;0.88;;;;;;;16.15;67.79;99618.81;5068911;28;20066;-80
2022/06/29 10:26:34;;;;;;;4.53;0.70;;;;;;;16.40;67.87;99609.41;5056137;28;20547;-80
2022/06/29 10:29:06;;;;;;;2.08;0.68;;;;;;;16.77;67.49;99604.50;5068151;28;20085;-80
2022/06/29 10:31:54;;;;;;;3.50;0.80;;;;;;;16.92;66.92;99606.97;5036490;28;20040;-80
2022/06/29 10:34:34;;;;;;;1.98;0.50;;;;;;;16.95;66.76;99603.03;5050039;28;20058;-81
2022/06/29 10:37:15;;;;;;;4.32;0.77;;;;;;;16.91;66.72;99607.16;5052075;28;20036;-80
2022/06/29 10:39:49;;;;;;;4.85;0.70;;;;;;;16.76;67.01;99605.53;5056332;28;20138;-81
2022/06/29 10:45:17;;;;;;;3.47;0.50;;;;;;;17.02;66.61;99606.53;5073165;28;20485;-80
2022/06/29 10:47:52;;;;;;;2.00;0.40;;;;;;;17.13;66.08;99609.63;5055852;28;20033;-80
2022/06/29 10:50:20;;;;;;;1.75;0.32;;;;;;;17.16;65.92;99611.88;5039486;28;20041;-81
2022/06/29 10:52:47;;;;;;;3.03;0.73;;;;;;;17.19;65.82;99606.94;5055763;28;20051;-81
2022/06/29 10:55:15;;;;;;;1.73;0.60;;;;;;;17.29;65.62;99603.84;5062782;28;20067;-80
2022/06/29 10:57:42;;;;;;;1.38;0.47;;;;;;;17.45;65.74;99599.91;5073323;28;20040;-81
2022/06/29 11:00:14;;;;;;;4.55;0.88;;;;;;;17.61;65.46;99598.56;5069822;28;20044;-81
2022/06/29 11:02:41;;;;;;;3.40;0.70;;;;;;;17.69;65.06;99594.88;5057636;28;20035;-81
2022/06/29 11:05:08;;;;;;;5.63;0.68;;;;;;;17.80;65.08;99593.38;5071859;28;20033;-80
2022/06/29 11:13:02;;;;;;;2.92;0.70;;;;;;;18.06;62.80;99601.47;5075320;28;20036;-80
2022/06/29 11:15:39;;;;;;;2.05;0.50;;;;;;;18.09;62.57;99609.06;5040534;28;20476;-80
2022/06/29 11:18:11;;;;;;;4.32;0.73;;;;;;;18.11;61.55;99604.28;5069889;28;20025;-81
2022/06/29 11:20:38;;;;;;;2.50;0.63;;;;;;;18.16;61.14;99603.69;5051246;28;20032;-80
2022/06/29 11:23:12;;;;;;;4.55;0.80;;;;;;;18.33;61.22;99596.78;5073319;28;20054;-76
2022/06/29 11:25:40;;;;;;;3.83;0.80;;;;;;;18.46;61.10;99598.53;5074317;28;20024;-76
2022/06/29 11:28:07;;;;;;;3.97;0.75;;;;;;;18.45;61.27;99607.63;5073028;28;20040;-80
2022/06/29 11:30:33;;;;;;;4.88;0.50;;;;;;;18.40;60.73;99617.31;5056383;28;20025;-80
2022/06/29 11:33:10;;;;;;;1.15;0.35;;;;;;;17.94;60.53;99612.00;5056707;28;20104;-80
2022/06/29 11:35:38;;;;;;;0.30;0.20;;;;;;;17.35;61.93;99623.53;5056952;28;20028;-80
2022/06/29 11:38:05;;;;;;;1.20;0.35;;;;;;;16.83;63.07;99626.88;5060432;28;20024;-80
2022/06/29 11:40:35;;;;;;;0.32;0.30;;;;;;;16.42;63.71;99637.53;5055782;28;20090;-80
2022/06/29 11:43:04;;;;;;;2.53;0.85;;;;;;;16.13;64.67;99639.53;5072607;28;20493;-80
2022/06/29 11:45:45;;;;;;;1.00;0.40;;;;;;;15.86;65.78;99636.75;5074373;28;20071;-80
2022/06/29 11:48:19;;;;;;;6.10;0.60;;;;;;;15.63;67.00;99646.69;5072382;28;20415;-81
2022/06/29 11:50:48;;;;;;;1.05;0.25;;;;;;;15.46;68.21;99648.03;5073429;28;20064;-80
2022/06/29 11:53:41;;;;;;;3.25;0.20;;;;;;;15.32;68.54;99639.97;5051947;28;20477;-81
2022/06/29 11:56:15;;;;;;;3.90;0.88;;;;;;;15.28;69.51;99638.72;5069359;28;20020;-80
2022/06/29 11:58:49;;;;;;;6.25;0.40;;;;;;;15.28;70.20;99640.53;5054344;28;20032;-81
2022/06/29 12:01:18;;;;;;;2.08;0.43;;;;;;;15.32;70.72;99626.66;5073198;28;20066;-81
2022/06/29 12:04:11;;;;;;;7.13;0.43;;;;;;;15.39;71.24;99640.00;5054738;28;20063;-81
2022/06/29 12:06:37;;;;;;;1.70;0.40;;;;;;;15.50;71.66;99641.28;5065890;28;20041;-81
2022/06/29 12:09:08;;;;;;;2.00;0.93;;;;;;;15.63;72.06;99644.03;5071525;28;20024;-81
2022/06/29 12:11:34;;;;;;;2.42;0.40;;;;;;;15.80;72.26;99642.88;5060834;28;20384;-81
2022/06/29 12:14:00;;;;;;;1.63;0.50;;;;;;;15.90;72.32;99647.81;5037236;28;20036;-81
2022/06/29 12:16:26;;;;;;;1.27;0.30;;;;;;;16.03;72.61;99639.06;5072199;28;20037;-81
2022/06/29 12:18:51;;;;;;;1.55;0.50;;;;;;;16.22;72.56;99640.16;5053195;28;20310;-81
2022/06/29 12:21:17;;;;;;;0.85;0.30;;;;;;;16.37;72.38;99637.34;5066868;28;20052;-81
2022/06/29 12:23:43;;;;;;;0.40;0.30;;;;;;;16.56;72.41;99635.69;5055126;28;20409;-81
2022/06/29 12:26:09;;;;;;;1.13;0.40;;;;;;;16.69;72.31;99639.41;5070137;28;20085;-81
2022/06/29 12:28:37;;;;;;;1.00;0.43;;;;;;;16.75;72.03;99633.25;5054385;28;20032;-81
2022/06/29 12:31:03;;;;;;;0.98;0.30;;;;;;;16.81;72.25;99634.28;5072485;28;20053;-81
2022/06/29 12:33:29;;;;;;;0.30;0.30;;;;;;;16.90;72.02;99626.88;5052896;28;20488;-81
2022/06/29 12:35:55;;;;;;;0.52;0.10;;;;;;;16.94;71.65;99626.25;5071197;28;20028;-81
2022/06/29 12:38:21;;;;;;;0.85;0.32;;;;;;;17.04;71.70;99620.47;5070967;28;20469;-82
2022/06/29 12:40:46;;;;;;;0.57;0.30;;;;;;;17.07;71.94;99625.41;5050754;28;20466;-81
2022/06/29 12:43:12;;;;;;;1.45;0.43;;;;;;;17.07;71.62;99621.94;5050743;28;20044;-82
2022/06/29 12:45:38;;;;;;;2.30;0.50;;;;;;;17.06;71.49;99622.94;5059940;28;20086;-81
2022/06/29 12:48:04;;;;;;;1.65;0.47;;;;;;;17.02;71.43;99622.56;5035104;28;20127;-81
2022/06/29 12:50:30;;;;;;;1.15;0.40;;;;;;;17.04;71.09;99625.03;5054100;28;20108;-81
2022/06/29 12:52:56;;;;;;;1.67;0.35;;;;;;;16.97;71.11;99631.19;5053482;28;20552;-82
2022/06/29 12:55:22;;;;;;;1.23;0.50;;;;;;;16.95;70.94;99630.56;5065488;28;20029;-82
2022/06/29 12:57:48;;;;;;;1.15;0.40;;;;;;;16.95;71.06;99632.41;5051980;28;20029;-75
2022/06/29 13:00:16;;;;;;;1.70;0.47;;;;;;;16.94;70.86;99628.09;5071455;28;20043;-75
2022/06/29 13:02:42;;;;;;;0.82;0.30;;;;;;;16.96;70.71;99628.72;5067675;28;20028;-82
2022/06/29 13:05:08;;;;;;;0.50;0.40;;;;;;;16.94;71.34;99617.44;5065247;28;20029;-82
2022/06/29 13:07:35;;;;;;;1.20;0.38;;;;;;;16.94;71.03;99620.09;5051499;28;21456;-82
2022/06/29 13:10:01;;;;;;;3.65;0.50;;;;;;;16.94;70.78;99626.25;5058315;28;20457;-82
2022/06/29 13:12:27;;;;;;;0.95;0.47;;;;;;;16.88;70.06;99624.44;5049145;28;20033;-82
2022/06/29 13:14:53;;;;;;;4.95;1.27;;;;;;;16.82;69.38;99625.22;5077694;28;20031;-81
2022/06/29 13:17:19;;;;;;;2.55;0.60;;;;;;;16.65;69.12;99641.66;5062593;28;20155;-81
2022/06/29 13:19:45;;;;;;;2.85;0.52;;;;;;;16.38;69.16;99633.63;5070452;28;20032;-82
2022/06/29 13:22:12;;;;;;;2.20;0.30;;;;;;;16.21;69.11;99646.53;5051765;28;20043;-81
2022/06/29 13:24:42;;;;;;;4.05;0.50;;;;;;;15.97;68.39;99649.50;5063663;28;20028;-81
2022/06/29 13:27:08;;;;;;;3.40;0.38;;;;;;;15.78;68.73;99650.25;5064321;28;20029;-82
2022/06/29 13:29:35;;;;;;;0.80;0.60;;;;;;;15.66;68.51;99650.78;5061731;28;20044;-82
2022/06/29 13:32:01;;;;;;;1.10;0.32;;;;;;;15.58;68.71;99657.13;5053188;28;20036;-81
2022/06/29 13:34:28;;;;;;;1.33;0.45;;;;;;;15.49;68.90;99651.13;5069076;28;20062;-82
2022/06/29 13:36:56;;;;;;;2.05;0.25;;;;;;;15.46;69.40;99654.19;5069522;28;20036;-81
2022/06/29 13:39:22;;;;;;;1.48;0.40;;;;;;;15.46;69.98;99658.69;5067381;28;20109;-82
2022/06/29 13:41:48;;;;;;;1.92;0.35;;;;;;;15.46;70.22;99661.34;5065147;28;20112;-81
2022/06/29 13:44:14;;;;;;;1.70;0.57;;;;;;;15.44;70.54;99658.88;5068209;28;20028;-82
2022/06/29 13:46:41;;;;;;;1.80;0.40;;;;;;;15.51;70.80;99664.25;5059059;28;20028;-82
2022/06/29 13:49:07;;;;;;;1.88;0.47;;;;;;;15.60;71.19;99662.25;5063213;28;20029;-82
2022/06/29 13:51:33;;;;;;;1.67;0.43;;;;;;;15.66;71.60;99658.78;5042639;28;20037;-82
2022/06/29 13:53:59;;;;;;;1.33;0.45;;;;;;;15.77;71.91;99660.06;5064482;28;20028;-82
2022/06/29 13:56:25;;;;;;;1.13;0.35;;;;;;;15.82;71.75;99659.47;5047184;28;20491;-82
2022/06/29 13:58:50;;;;;;;2.45;0.55;;;;;;;15.85;71.69;99654.56;5068028;28;20037;-81
2022/06/29 14:01:17;;;;;;;1.00;0.30;;;;;;;15.86;71.40;99661.53;5067613;28;20043;-81
2022/06/29 14:03:43;;;;;;;1.55;0.20;;;;;;;15.86;71.03;99669.53;5050687;28;20024;-82
2022/06/29 14:06:08;;;;;;;1.42;0.32;;;;;;;15.90;70.76;99671.78;5035237;28;20046;-82
2022/06/29 14:08:34;;;;;;;1.85;0.50;;;;;;;15.95;70.87;99664.88;5053920;28;20047;-82
2022/06/29 14:11:00;;;;;;;4.32;0.40;;;;;;;15.99;70.80;99665.31;5065283;28;20134;-81
2022/06/29 14:13:27;;;;;;;2.55;0.38;;;;;;;15.99;71.09;99665.31;5073861;28;20044;-81
2022/06/29 14:15:52;;;;;;;1.92;0.40;;;;;;;16.04;71.43;99664.72;5068609;28;20028;-81
2022/06/29 14:18:19;;;;;;;2.20;0.40;;;;;;;16.04;71.76;99662.06;5067303;28;20388;-82
2022/06/29 14:20:45;;;;;;;1.38;0.40;;;;;;;16.00;72.02;99672.28;5050334;28;20111;-81
2022/06/29 14:23:12;;;;;;;1.10;0.28;;;;;;;16.02;72.35;99669.44;5049169;28;20427;-81
2022/06/29 14:25:38;;;;;;;3.65;0.70;;;;;;;16.07;72.83;99667.00;5053384;28;20495;-81
2022/06/29 14:28:04;;;;;;;2.42;0.40;;;;;;;16.09;73.25;99663.09;5048512;28;20045;-82
2022/06/29 14:30:31;;;;;;;1.77;0.40;;;;;;;16.07;73.63;99665.13;5046915;28;20115;-82
2022/06/29 14:32:58;;;;;;;2.95;0.43;;;;;;;16.08;73.95;99663.28;5064626;28;20062;-81
2022/06/29 14:35:24;;;;;;;2.22;0.75;;;;;;;16.10;74.09;99654.06;5052089;28;20479;-82
2022/06/29 14:37:50;;;;;;;0.35;0.20;;;;;;;16.11;73.52;99658.41;5049277;28;20035;-81
2022/06/29 14:40:17;;;;;;;0.80;0.30;;;;;;;16.07;72.33;99653.66;5035178;28;20055;-81
2022/06/29 14:42:44;;;;;;;0.35;0.20;;;;;;;16.12;71.99;99657.38;5049912;28;20049;-82
2022/06/29 14:45:10;;;;;;;2.05;0.30;;;;;;;16.19;71.41;99653.91;5049318;28;20448;-81
2022/06/29 14:47:36;;;;;;;1.50;0.30;;;;;;;16.22;70.91;99651.66;5047453;28;20028;-81
2022/06/29 14:50:03;;;;;;;2.47;0.30;;;;;;;16.27;70.51;99659.03;5046100;28;20047;-82
2022/06/29 14:52:33;;;;;;;0.73;0.20;;;;;;;16.40;70.37;99660.94;5048503;28;20037;-75
2022/06/29 14:55:00;;;;;;;1.48;0.22;;;;;;;16.49;70.24;99648.22;5059283;28;20390;-75
2022/06/29 14:57:28;;;;;;;0.63;0.30;;;;;;;16.66;70.02;99645.97;5047525;28;20029;-82
2022/06/29 14:59:54;;;;;;;0.57;0.20;;;;;;;16.94;69.48;99654.78;5043029;28;20029;-81
2022/06/29 15:02:20;;;;;;;0.93;0.25;;;;;;;17.04;69.00;99655.19;5045413;28;20074;-82
2022/06/29 15:04:46;;;;;;;1.67;0.30;;;;;;;17.18;68.83;99648.03;5063289;28;20043;-82
2022/06/29 15:07:13;;;;;;;2.78;0.70;;;;;;;17.18;69.32;99649.88;5048392;28;20481;-82
2022/06/29 15:09:39;;;;;;;1.98;0.30;;;;;;;17.03;69.61;99653.56;5024846;28;20060;-82
2022/06/29 15:12:06;;;;;;;0.75;0.20;;;;;;;16.84;69.82;99655.19;5043373;28;20469;-81
2022/06/29 15:14:32;;;;;;;1.20;0.20;;;;;;;16.53;68.73;99656.63;5032166;28;20029;-82
2022/06/29 15:16:58;;;;;;;0.30;0.10;;;;;;;16.34;68.50;99662.53;5062777;28;20113;-82
2022/06/29 15:19:25;;;;;;;1.40;0.22;;;;;;;16.32;68.14;99658.44;5065100;28;20033;-81
2022/06/29 15:21:51;;;;;;;1.45;0.30;;;;;;;16.19;68.01;99659.22;5049475;28;20025;-81
2022/06/29 15:24:18;;;;;;;0.85;0.20;;;;;;;16.16;68.46;99662.28;5049558;28;20028;-82
2022/06/29 15:26:44;;;;;;;0.35;0.10;;;;;;;16.08;68.86;99657.97;5052639;28;20133;-82
2022/06/29 15:29:10;;;;;;;0.95;0.20;;;;;;;16.10;69.08;99655.94;5052219;28;20112;-82
2022/06/29 15:31:38;;;;;;;0.85;0.15;;;;;;;16.17;69.19;99653.25;5053962;28;20033;-82
2022/06/29 15:39:34;;;;;;;0.90;0.20;;;;;;;16.13;69.67;99650.19;5051492;28;20043;-82
2022/06/29 15:42:00;;;;;;;1.98;0.30;;;;;;;16.24;69.96;99656.78;5049177;28;20116;-81
2022/06/29 15:44:26;;;;;;;1.05;0.20;;;;;;;16.37;70.07;99654.13;5051858;28;20029;-82
2022/06/29 15:46:52;;;;;;;1.08;0.28;;;;;;;16.47;70.08;99652.91;5053287;28;20463;-75
2022/06/29 15:49:18;;;;;;;1.73;0.40;;;;;;;16.59;70.17;99656.66;5052540;28;20115;-75
2022/06/29 15:51:45;;;;;;;3.15;0.40;;;;;;;16.65;70.19;99648.84;5051758;28;20044;-75
2022/06/29 15:57:06;;;;;;;0.57;0.20;;;;;;;16.51;70.41;99648.00;5033461;28;20132;-82
2022/06/29 15:59:32;;;;;;;1.48;0.30;;;;;;;16.31;70.19;99657.59;5068645;28;20032;-82
2022/06/29 16:01:58;;;;;;;2.30;0.30;;;;;;;16.30;70.14;99657.81;5068446;28;20067;-82
2022/06/29 16:04:23;;;;;;;1.55;0.30;;;;;;;16.28;69.88;99657.19;5049730;28;20465;-82
2022/06/29 16:06:50;;;;;;;0.75;0.35;;;;;;;16.26;69.64;99660.06;5047495;28;20029;-82
2022/06/29 16:09:16;;;;;;;4.82;0.50;;;;;;;16.25;69.65;99663.75;5019275;28;20067;-82
2022/06/29 16:14:26;;;;;;;1.50;0.40;;;;;;;16.10;70.06;99663.94;5050195;28;20033;-82
2022/06/29 16:16:52;;;;;;;4.90;0.40;;;;;;;16.06;70.21;99668.84;5058635;28;20051;-81
2022/06/29 16:19:18;;;;;;;2.28;0.32;;;;;;;15.95;70.32;99669.38;5018473;28;20477;-82
2022/06/29 16:21:45;;;;;;;1.83;0.40;;;;;;;15.84;70.29;99668.94;5067270;28;20075;-82
2022/06/29 16:24:11;;;;;;;2.80;0.47;;;;;;;15.70;70.88;99676.00;5044823;28;20109;-82
2022/06/29 16:26:38;;;;;;;2.97;0.52;;;;;;;15.68;71.03;99675.41;5063389;28;20043;-81
2022/06/29 16:29:04;;;;;;;2.15;0.50;;;;;;;15.69;71.34;99670.88;5065957;28;20041;-82
2022/06/29 16:31:30;;;;;;;2.13;0.52;;;;;;;15.69;71.46;99668.22;5055695;28;20033;-82
2022/06/29 16:33:57;;;;;;;1.65;0.50;;;;;;;15.70;71.64;99673.34;5049655;28;20135;-82
2022/06/29 16:36:23;;;;;;;2.67;0.70;;;;;;;15.66;71.61;99677.44;5050925;28;20056;-82
2022/06/29 16:38:49;;;;;;;1.75;0.35;;;;;;;15.56;72.11;99677.00;5049271;28;20033;-82
2022/06/29 16:41:15;;;;;;;1.85;0.40;;;;;;;15.50;72.31;99682.06;5067985;28;20047;-75
2022/06/29 16:43:41;;;;;;;1.58;0.30;;;;;;;15.45;71.98;99679.16;5021374;28;20040;-75
2022/06/29 16:46:07;;;;;;;1.38;0.30;;;;;;;15.38;72.10;99676.44;5053167;28;20047;-82
2022/06/29 16:48:33;;;;;;;2.38;0.40;;;;;;;15.33;72.14;99678.06;5071550;28;20032;-82
2022/06/29 16:51:00;;;;;;;1.90;0.50;;;;;;;15.31;71.99;99675.59;5050969;28;20086;-81
2022/06/29 16:53:26;;;;;;;1.02;0.30;;;;;;;15.31;72.01;99664.13;5070473;28;20036;-82
2022/06/29 16:55:52;;;;;;;0.77;0.22;;;;;;;15.27;71.64;99673.53;5060961;28;20086;-81
2022/06/29 16:58:18;;;;;;;3.30;0.30;;;;;;;15.22;71.23;99668.78;5072148;28;20073;-82
2022/06/29 17:00:45;;;;;;;2.60;0.40;;;;;;;15.19;71.17;99677.16;5049151;28;20062;-76
2022/06/29 17:03:14;;;;;;;0.52;0.20;;;;;;;15.23;70.81;99671.25;5039157;28;20048;-75
2022/06/29 17:05:41;;;;;;;2.10;0.45;;;;;;;15.28;70.68;99677.81;5053039;28;20039;-75
2022/06/29 17:08:07;;;;;;;0.82;0.35;;;;;;;15.34;70.32;99672.53;5055067;28;20051;-75
2022/06/29 17:10:34;;;;;;;2.80;0.43;;;;;;;15.43;70.20;99672.41;5054502;28;20039;-75
2022/06/29 17:13:01;;;;;;;3.92;0.70;;;;;;;15.46;69.96;99670.19;5034704;28;20452;-75
2022/06/29 17:15:27;;;;;;;2.75;0.45;;;;;;;15.53;70.19;99672.84;5069006;28;20028;-75
2022/06/29 17:17:53;;;;;;;3.65;0.60;;;;;;;15.57;70.44;99670.63;5072884;28;20021;-75
2022/06/29 17:20:20;;;;;;;3.70;0.68;;;;;;;15.59;70.57;99668.59;5038782;28;20033;-75
2022/06/29 17:22:47;;;;;;;1.05;0.40;;;;;;;15.68;70.84;99678.06;5071124;28;20090;-75
2022/06/29 17:25:13;;;;;;;4.88;0.47;;;;;;;15.69;71.00;99682.38;5054315;28;20540;-75
2022/06/29 17:27:40;;;;;;;1.40;0.35;;;;;;;15.65;71.56;99678.47;5072150;28;20041;-75
2022/06/29 17:30:07;;;;;;;3.85;0.50;;;;;;;15.61;71.77;99686.03;5072223;28;20039;-75
2022/06/29 17:32:34;;;;;;;3.53;0.60;;;;;;;15.61;72.45;99677.19;5037728;28;20042;-82
2022/06/29 17:35:00;;;;;;;3.20;0.50;;;;;;;15.62;72.94;99686.84;5006222;28;20058;-82
2022/06/29 17:37:26;;;;;;;4.10;0.63;;;;;;;15.59;73.27;99681.91;5053229;28;20031;-75
2022/06/29 17:39:53;;;;;;;3.58;0.50;;;;;;;15.57;73.50;99679.44;5050383;28;20040;-75
2022/06/29 17:42:19;;;;;;;4.03;0.85;;;;;;;15.55;73.96;99681.47;5048064;28;20049;-75
2022/06/29 17:44:45;;;;;;;1.33;0.40;;;;;;;15.54;73.89;99685.16;5046157;28;20025;-75
2022/06/29 17:47:11;;;;;;;5.65;0.50;;;;;;;15.55;74.55;99685.97;5043369;28;20473;-75
2022/06/29 17:49:37;;;;;;;1.95;0.55;;;;;;;15.56;74.81;99684.97;5051154;28;20028;-75
2022/06/29 17:52:06;;;;;;;1.88;0.60;;;;;;;15.52;74.77;99683.69;5064907;28;20029;-75
2022/06/29 17:54:35;;;;;;;4.90;0.65;;;;;;;15.49;74.47;99691.09;5065937;28;20029;-75
2022/06/29 17:57:01;;;;;;;3.00;0.70;;;;;;;15.44;74.93;99695.34;5049917;28;20028;-82
2022/06/29 17:59:27;;;;;;;1.85;0.45;;;;;;;15.37;75.21;99688.13;5059969;28;20059;-82
2022/06/29 18:01:54;;;;;;;2.08;0.60;;;;;;;15.35;75.63;99690.16;5049817;28;20028;-82
2022/06/29 18:04:21;;;;;;;3.20;0.50;;;;;;;15.26;76.17;99693.97;5047788;28;20052;-82
2022/06/29 18:06:47;;;;;;;2.38;0.60;;;;;;;15.16;76.16;99698.84;5041795;28;20037;-82
2022/06/29 18:09:13;;;;;;;3.65;0.95;;;;;;;15.12;76.51;99704.53;5040415;28;20405;-82
2022/06/29 18:11:39;;;;;;;2.85;0.77;;;;;;;15.10;76.74;99711.88;5061134;28;20029;-82
2022/06/29 18:14:05;;;;;;;4.13;0.50;;;;;;;15.08;77.01;99707.78;5049479;28;20037;-82
2022/06/29 18:16:31;;;;;;;6.22;0.55;;;;;;;15.10;77.43;99706.56;5062777;28;20090;-82
2022/06/29 18:18:58;;;;;;;2.53;0.57;;;;;;;15.11;77.58;99707.41;5044576;28;20037;-82
2022/06/29 18:21:24;;;;;;;2.58;0.50;;;;;;;15.07;77.68;99711.44;5062992;28;20056;-82
2022/06/29 18:23:50;;;;;;;2.45;0.68;;;;;;;15.06;78.01;99704.50;5062080;28;20473;-82
2022/06/29 18:26:16;;;;;;;2.20;0.57;;;;;;;15.06;78.10;99699.16;5046405;28;20040;-82
2022/06/29 18:28:42;;;;;;;2.33;0.60;;;;;;;15.09;77.99;99704.09;5040420;28;20029;-82
2022/06/29 18:31:08;;;;;;;1.95;0.77;;;;;;;15.08;78.03;99711.25;5043875;28;20600;-82
2022/06/29 18:33:33;;;;;;;2.47;0.55;;;;;;;15.11;78.47;99708.22;5044165;28;20061;-83
2022/06/29 18:36:00;;;;;;;5.93;0.80;;;;;;;15.18;78.36;99710.13;5045964;28;20060;-82
2022/06/29 18:38:27;;;;;;;5.53;0.82;;;;;;;15.24;78.35;99712.00;5028747;28;20476;-82
2022/06/29 18:40:53;;;;;;;3.78;0.70;;;;;;;15.26;78.48;99709.97;5061742;28;20037;-81
2022/06/29 18:43:18;;;;;;;5.32;1.35;;;;;;;15.29;78.54;99706.09;5063406;28;20079;-82
2022/06/29 18:45:46;;;;;;;4.70;1.20;;;;;;;15.29;78.69;99706.91;5062657;28;20556;-82
2022/06/29 18:48:12;;;;;;;2.17;0.75;;;;;;;15.29;78.81;99708.78;5035281;28;20033;-75
2022/06/29 18:50:38;;;;;;;4.13;0.90;;;;;;;15.28;78.96;99715.91;5045771;28;20033;-75
2022/06/29 18:53:04;;;;;;;1.92;0.88;;;;;;;15.26;79.24;99712.63;5069119;28;20493;-82
2022/06/29 18:55:30;;;;;;;3.72;0.70;;;;;;;15.26;79.34;99712.63;5051213;28;20025;-82
2022/06/29 18:57:56;;;;;;;6.88;1.05;;;;;;;15.19;79.69;99714.44;5050090;28;20382;-82
2022/06/29 19:00:22;;;;;;;6.38;1.00;;;;;;;15.13;79.89;99718.66;5054835;28;20060;-82
2022/06/29 19:02:48;;;;;;;4.10;1.48;;;;;;;14.98;80.11;99722.25;5074040;28;20485;-82
2022/06/29 19:05:16;;;;;;;5.82;0.88;;;;;;;14.79;80.93;99731.69;5054468;28;20127;-82
2022/06/29 19:07:43;;;;;;;2.20;0.60;;;;;;;14.67;81.39;99733.19;5074236;28;20115;-81
2022/06/29 19:10:10;;;;;;;5.40;1.10;;;;;;;14.54;81.73;99729.34;5062044;28;20040;-81
2022/06/29 19:12:37;;;;;;;4.50;0.90;;;;;;;14.39;82.17;99743.53;5055716;28;20033;-75
2022/06/29 19:15:03;;;;;;;7.05;0.98;;;;;;;14.30;82.99;99744.63;5070364;28;20037;-76
2022/06/29 19:17:29;;;;;;;8.65;0.93;;;;;;;14.19;83.53;99742.47;5055970;28;20100;-75
2022/06/29 19:19:55;;;;;;;6.72;1.25;;;;;;;14.15;83.86;99749.97;5072512;28;20541;-75
2022/06/29 19:22:22;;;;;;;2.17;0.63;;;;;;;14.10;84.09;99741.72;5056083;28;20029;-81
2022/06/29 19:24:48;;;;;;;3.72;0.70;;;;;;;14.09;84.42;99750.72;5056326;28;20110;-81
2022/06/29 19:27:14;;;;;;;3.53;0.90;;;;;;;14.09;84.67;99751.56;5038286;28;20035;-81
2022/06/29 19:29:40;;;;;;;5.95;1.00;;;;;;;14.07;84.68;99750.91;5070354;28;20507;-82
2022/06/29 19:32:06;;;;;;;2.95;0.63;;;;;;;14.05;84.78;99754.75;5069006;28;20040;-81
2022/06/29 19:34:33;;;;;;;7.50;1.02;;;;;;;14.05;85.09;99747.59;5040191;28;20033;-81
2022/06/29 19:36:58;;;;;;;5.95;1.27;;;;;;;14.09;85.00;99750.72;5040110;28;20036;-81
2022/06/29 19:39:24;;;;;;;4.65;1.38;;;;;;;14.10;85.20;99760.31;5070497;28;20481;-80
2022/06/29 19:41:50;;;;;;;9.60;1.40;;;;;;;14.09;85.13;99758.69;5070207;28;20525;-81
2022/06/29 19:44:16;;;;;;;3.63;1.08;;;;;;;14.05;85.39;99750.25;5036781;28;20504;-81